createdAt,value
2022-08-24T00:00:15.548Z,101368.28
2022-08-24T00:02:18.307Z,101363.84
2022-08-24T00:04:20.701Z,101372.56
2022-08-24T00:06:23.799Z,101370.75
2022-08-24T00:08:27.249Z,101377.88
2022-08-24T00:10:29.671Z,101368.25
2022-08-24T00:12:32.738Z,101361.16
2022-08-24T00:14:35.853Z,101372.69
2022-08-24T00:16:45.825Z,101374.38
2022-08-24T00:18:48.837Z,101369.94
2022-08-24T00:20:51.936Z,101356.06
2022-08-24T00:22:54.084Z,101363.91
2022-08-24T00:24:57.155Z,101371.78
2022-08-24T00:27:00.139Z,101371.72
2022-08-24T00:29:07.291Z,101372.69
2022-08-24T00:31:10.667Z,101369.22
2022-08-24T00:33:12.846Z,101374.41
2022-08-24T00:35:18.614Z,101377.03
2022-08-24T00:37:20.764Z,101371.78
2022-08-24T00:39:23.049Z,101371.78
2022-08-24T00:41:25.467Z,101370.06
2022-08-24T00:43:27.753Z,101364.78
2022-08-24T00:45:31.443Z,101364.81
2022-08-24T00:47:42.963Z,101358.84
2022-08-24T00:50:11.027Z,101361.31
2022-08-24T00:52:20.326Z,101355.22
2022-08-24T00:54:27.210Z,101356.94
2022-08-24T00:56:42.733Z,101363.06
2022-08-24T00:58:56.901Z,101361.34
2022-08-24T01:01:04.542Z,101353.47
2022-08-24T01:03:07.572Z,101352.56
2022-08-24T01:05:12.579Z,101350.81
2022-08-24T01:07:15.846Z,101353.41
2022-08-24T01:09:18.030Z,101359.59
2022-08-24T01:11:25.176Z,101352.72
2022-08-24T01:13:29.703Z,101356.97
2022-08-24T01:15:35.627Z,101358.69
2022-08-24T01:17:56.890Z,101361.34
2022-08-24T01:20:01.254Z,101357.00
2022-08-24T01:22:37.777Z,101357.81
2022-08-24T01:24:41.013Z,101359.56
2022-08-24T01:26:49.805Z,101364.88
2022-08-24T01:28:57.791Z,101369.28
2022-08-24T01:31:01.490Z,101369.16
2022-08-24T01:33:07.389Z,101363.09
2022-08-24T01:35:10.082Z,101367.41
2022-08-24T01:37:12.657Z,101357.06
2022-08-24T01:39:21.014Z,101365.75
2022-08-24T01:41:28.283Z,101360.53
2022-08-24T01:43:31.526Z,101357.06
2022-08-24T01:45:39.419Z,101361.31
2022-08-24T01:47:41.605Z,101356.25
2022-08-24T01:49:47.815Z,101358.84
2022-08-24T01:51:50.145Z,101361.63
2022-08-24T01:53:52.326Z,101358.84
2022-08-24T01:55:54.764Z,101353.63
2022-08-24T01:57:57.532Z,101348.41
2022-08-24T02:00:00.494Z,101356.22
2022-08-24T02:02:08.287Z,101360.56
2022-08-24T02:04:10.813Z,101373.78
2022-08-24T02:06:19.840Z,101374.59
2022-08-24T02:08:22.220Z,101370.25
2022-08-24T02:10:24.977Z,101360.59
2022-08-24T02:12:27.417Z,101364.91
2022-08-24T02:14:32.884Z,101374.59
2022-08-24T02:16:44.594Z,101370.22
2022-08-24T02:18:47.216Z,101361.47
2022-08-24T02:20:50.547Z,101369.47
2022-08-24T02:22:53.883Z,101374.72
2022-08-24T02:24:56.120Z,101379.91
2022-08-24T02:26:59.359Z,101374.59
2022-08-24T02:29:03.608Z,101373.72
2022-08-24T02:31:07.643Z,101371.94
2022-08-24T02:33:09.871Z,101370.19
2022-08-24T02:35:12.531Z,101378.25
2022-08-24T02:37:14.838Z,101379.84
2022-08-24T02:39:16.947Z,101385.09
2022-08-24T02:41:18.969Z,101374.66
2022-08-24T02:43:20.949Z,101381.66
2022-08-24T02:45:23.031Z,101378.13
2022-08-24T02:47:38.257Z,101385.09
2022-08-24T02:49:41.497Z,101382.53
2022-08-24T02:51:46.152Z,101386.84
2022-08-24T02:53:48.642Z,101375.53
2022-08-24T02:55:51.022Z,101369.38
2022-08-24T02:57:53.007Z,101379.94
2022-08-24T02:59:54.875Z,101378.19
2022-08-24T03:01:56.681Z,101380.91
2022-08-24T03:03:58.659Z,101372.09
2022-08-24T03:06:00.475Z,101366.91
2022-08-24T03:08:02.780Z,101373.91
2022-08-24T03:10:07.159Z,101378.22
2022-08-24T03:12:09.085Z,101371.31
2022-08-24T03:14:11.322Z,101372.25
2022-08-24T03:16:13.321Z,101376.53
2022-08-24T03:18:15.223Z,101373.03
2022-08-24T03:20:21.992Z,101379.16
2022-08-24T03:22:24.453Z,101373.88
2022-08-24T03:24:26.229Z,101376.53
2022-08-24T03:26:28.355Z,101370.53
2022-08-24T03:28:30.406Z,101372.16
2022-08-24T03:30:33.264Z,101374.84
2022-08-24T03:32:35.472Z,101379.97
2022-08-24T03:34:37.977Z,101380.81
2022-08-24T03:36:41.382Z,101385.19
2022-08-24T03:38:44.043Z,101373.78
2022-08-24T03:40:45.920Z,101368.56
2022-08-24T03:42:47.825Z,101369.50
2022-08-24T03:44:51.696Z,101369.44
2022-08-24T03:46:54.191Z,101365.06
2022-08-24T03:48:58.277Z,101369.47
2022-08-24T03:51:00.388Z,101368.59
2022-08-24T03:53:02.471Z,101362.47
2022-08-24T03:55:07.052Z,101370.34
2022-08-24T03:57:08.860Z,101371.19
2022-08-24T03:59:11.107Z,101361.63
2022-08-24T04:01:13.851Z,101371.28
2022-08-24T04:03:16.082Z,101372.09
2022-08-24T04:05:18.037Z,101370.44
2022-08-24T04:07:20.353Z,101374.69
2022-08-24T04:09:22.232Z,101376.44
2022-08-24T04:11:28.355Z,101376.47
2022-08-24T04:13:33.683Z,101377.31
2022-08-24T04:15:40.395Z,101373.09
2022-08-24T04:17:42.383Z,101366.94
2022-08-24T04:19:59.825Z,101368.69
2022-08-24T04:22:01.892Z,101366.13
2022-08-24T04:24:06.072Z,101367.91
2022-08-24T04:26:07.843Z,101367.13
2022-08-24T04:28:10.727Z,101373.19
2022-08-24T04:30:14.619Z,101373.25
2022-08-24T04:32:16.583Z,101364.41
2022-08-24T04:34:18.838Z,101376.69
2022-08-24T04:36:21.865Z,101373.28
2022-08-24T04:38:24.021Z,101378.47
2022-08-24T04:40:25.965Z,101370.56
2022-08-24T04:42:27.936Z,101372.50
2022-08-24T04:44:30.146Z,101373.31
2022-08-24T04:46:33.570Z,101374.31
2022-08-24T04:48:36.243Z,101380.34
2022-08-24T04:50:40.134Z,101381.22
2022-08-24T04:52:42.272Z,101377.72
2022-08-24T04:54:44.085Z,101381.34
2022-08-24T04:56:46.108Z,101380.34
2022-08-24T04:58:48.177Z,101377.63
2022-08-24T05:00:50.249Z,101384.69
2022-08-24T05:02:52.165Z,101380.31
2022-08-24T05:04:55.405Z,101389.19
2022-08-24T05:06:57.494Z,101389.16
2022-08-24T05:09:00.684Z,101386.56
2022-08-24T05:11:07.557Z,101385.69
2022-08-24T05:13:10.239Z,101389.16
2022-08-24T05:15:13.211Z,101394.47
2022-08-24T05:17:14.988Z,101395.31
2022-08-24T05:19:17.286Z,101401.34
2022-08-24T05:21:21.754Z,101392.56
2022-08-24T05:23:23.722Z,101407.47
2022-08-24T05:25:25.676Z,101399.72
2022-08-24T05:27:27.562Z,101401.38
2022-08-24T05:29:29.993Z,101397.84
2022-08-24T05:31:32.913Z,101405.72
2022-08-24T05:33:34.935Z,101413.56
2022-08-24T05:35:43.635Z,101415.38
2022-08-24T05:37:46.342Z,101410.13
2022-08-24T05:39:55.545Z,101409.19
2022-08-24T05:41:59.928Z,101418.84
2022-08-24T05:44:01.736Z,101408.28
2022-08-24T05:46:08.434Z,101409.22
2022-08-24T05:48:10.298Z,101404.81
2022-08-24T05:50:12.652Z,101420.59
2022-08-24T05:52:14.427Z,101410.94
2022-08-24T05:54:16.256Z,101417.06
2022-08-24T05:56:19.712Z,101420.63
2022-08-24T05:58:22.966Z,101420.56
2022-08-24T06:00:33.557Z,101427.50
2022-08-24T06:02:35.355Z,101418.75
2022-08-24T06:04:38.266Z,101422.22
2022-08-24T06:06:40.296Z,101426.66
2022-08-24T06:08:46.102Z,101431.81
2022-08-24T06:10:50.914Z,101437.91
2022-08-24T06:12:52.645Z,101436.13
2022-08-24T06:14:54.716Z,101436.06
2022-08-24T06:16:56.567Z,101441.38
2022-08-24T06:18:58.294Z,101448.38
2022-08-24T06:21:05.020Z,101448.38
2022-08-24T06:23:07.258Z,101448.34
2022-08-24T06:25:27.729Z,101442.28
2022-08-24T06:27:29.621Z,101451.00
2022-08-24T06:29:34.348Z,101450.16
2022-08-24T06:31:42.253Z,101450.09
2022-08-24T06:33:45.355Z,101455.28
2022-08-24T06:35:47.778Z,101460.50
2022-08-24T06:37:49.446Z,101457.81
2022-08-24T06:39:54.953Z,101456.00
2022-08-24T06:41:59.440Z,101456.78
2022-08-24T06:44:01.147Z,101451.50
2022-08-24T06:46:03.712Z,101448.81
2022-08-24T06:48:05.510Z,101453.34
2022-08-24T06:50:08.651Z,101462.00
2022-08-24T06:52:11.965Z,101464.59
2022-08-24T06:54:14.052Z,101461.13
2022-08-24T06:56:16.833Z,101462.88
2022-08-24T06:58:19.279Z,101469.97
2022-08-24T07:00:22.061Z,101470.75
2022-08-24T07:02:24.622Z,101461.94
2022-08-24T07:04:28.342Z,101469.81
2022-08-24T07:06:31.844Z,101470.63
2022-08-24T07:08:34.419Z,101468.09
2022-08-24T07:10:36.184Z,101470.78
2022-08-24T07:12:38.132Z,101464.59
2022-08-24T07:14:39.811Z,101468.94
2022-08-24T07:16:41.537Z,101474.94
2022-08-24T07:18:47.320Z,101460.97
2022-08-24T07:20:51.878Z,101465.28
2022-08-24T07:22:54.602Z,101470.53
2022-08-24T07:24:56.308Z,101470.53
2022-08-24T07:26:58.031Z,101471.38
2022-08-24T07:29:06.384Z,101475.81
2022-08-24T07:31:09.901Z,101469.69
2022-08-24T07:33:12.228Z,101471.38
2022-08-24T07:35:15.559Z,101480.09
2022-08-24T07:37:18.450Z,101487.91
2022-08-24T07:39:20.144Z,101493.13
2022-08-24T07:41:51.403Z,101493.13
2022-08-24T07:43:46.806Z,101498.38
2022-08-24T07:45:49.771Z,101485.22
2022-08-24T07:49:58.965Z,101490.41
2022-08-24T07:52:01.196Z,101492.03
2022-08-24T07:54:03.441Z,101494.59
2022-08-24T07:56:10.129Z,101498.91
2022-08-24T07:58:11.888Z,101486.66
2022-08-24T08:00:16.478Z,101483.19
2022-08-24T08:02:18.485Z,101491.91
2022-08-24T08:04:25.197Z,101496.25
2022-08-24T08:06:26.989Z,101494.41
2022-08-24T08:08:29.619Z,101491.78
2022-08-24T08:10:31.466Z,101491.75
2022-08-24T08:12:35.074Z,101493.44
2022-08-24T08:14:38.503Z,101493.44
2022-08-24T08:16:40.645Z,101489.00
2022-08-24T08:18:45.518Z,101495.94
2022-08-24T08:20:47.562Z,101507.34
2022-08-24T08:23:07.762Z,101499.44
2022-08-24T08:25:09.833Z,101510.69
2022-08-24T08:27:13.074Z,101504.56
2022-08-24T08:29:14.835Z,101515.00
2022-08-24T08:31:16.606Z,101504.41
2022-08-24T08:33:18.644Z,101506.47
2022-08-24T08:35:20.991Z,101505.50
2022-08-24T08:37:22.981Z,101503.56
2022-08-24T08:39:28.034Z,101499.13
2022-08-24T08:42:00.705Z,101505.25
2022-08-24T08:44:11.943Z,101510.38
2022-08-24T08:46:13.709Z,101502.47
2022-08-24T08:48:42.493Z,101499.84
2022-08-24T08:51:21.430Z,101502.47
2022-08-24T08:53:56.852Z,101503.03
2022-08-24T08:56:09.693Z,101494.25
2022-08-24T08:58:25.659Z,101494.94
2022-08-24T09:00:40.837Z,101501.13
2022-08-24T09:03:27.205Z,101502.84
2022-08-24T09:05:34.435Z,101486.13
2022-08-24T09:07:47.697Z,101494.78
2022-08-24T09:10:02.540Z,101509.84
2022-08-24T09:12:11.800Z,101489.69
2022-08-24T09:14:41.478Z,101499.41
2022-08-24T09:17:01.874Z,101503.69
2022-08-24T09:19:34.696Z,101494.09
2022-08-24T09:21:42.395Z,101495.81
2022-08-24T09:24:15.853Z,101498.41
2022-08-24T09:26:27.270Z,101494.78
2022-08-24T09:28:35.044Z,101489.34
2022-08-24T09:30:55.394Z,101492.72
2022-08-24T09:33:00.611Z,101499.66
2022-08-24T09:35:09.900Z,101497.00
2022-08-24T09:37:34.848Z,101495.25
2022-08-24T09:39:59.047Z,101502.28
2022-08-24T09:42:09.790Z,101501.28
2022-08-24T09:44:38.810Z,101496.03
2022-08-24T09:46:55.806Z,101497.53
2022-08-24T09:49:29.855Z,101486.91
2022-08-24T09:51:49.745Z,101479.53
2022-08-24T09:54:08.859Z,101483.78
2022-08-24T09:56:37.796Z,101484.59
2022-08-24T09:58:59.114Z,101476.00
2022-08-24T10:01:26.274Z,101466.28
2022-08-24T10:03:41.074Z,101468.75
2022-08-24T10:06:03.816Z,101470.22
2022-08-24T10:08:42.313Z,101471.94
2022-08-24T10:11:03.197Z,101478.69
2022-08-24T10:13:25.306Z,101477.66
2022-08-24T10:15:53.494Z,101483.66
2022-08-24T10:18:17.833Z,101474.03
2022-08-24T10:20:23.952Z,101475.59
2022-08-24T10:22:47.143Z,101465.19
2022-08-24T10:24:58.628Z,101470.16
2022-08-24T10:27:08.898Z,101462.13
2022-08-24T10:29:29.198Z,101461.09
2022-08-24T10:31:41.117Z,101465.28
2022-08-24T10:34:16.678Z,101453.66
2022-08-24T10:36:36.302Z,101454.00
2022-08-24T10:39:24.918Z,101452.75
2022-08-24T10:41:59.984Z,101466.25
2022-08-24T10:44:40.848Z,101462.16
2022-08-24T10:46:50.310Z,101447.19
2022-08-24T10:49:13.845Z,101455.69
2022-08-24T10:51:54.069Z,101449.34
2022-08-24T10:53:57.088Z,101444.63
2022-08-24T10:56:19.718Z,101442.34
2022-08-24T10:58:46.242Z,101435.13
2022-08-24T11:00:48.702Z,101439.25
2022-08-24T11:03:15.631Z,101442.31
2022-08-24T11:05:35.544Z,101446.34
2022-08-24T11:07:45.718Z,101445.44
2022-08-24T11:09:58.711Z,101436.41
2022-08-24T11:12:18.369Z,101440.59
2022-08-24T11:14:27.651Z,101433.25
2022-08-24T11:16:39.937Z,101434.28
2022-08-24T11:18:52.750Z,101445.06
2022-08-24T11:20:55.750Z,101437.81
2022-08-24T11:23:08.010Z,101431.25
2022-08-24T11:25:36.097Z,101436.97
2022-08-24T11:27:45.958Z,101432.50
2022-08-24T11:29:57.278Z,101435.25
2022-08-24T11:32:00.359Z,101426.03
2022-08-24T11:34:16.457Z,101426.53
2022-08-24T11:36:21.517Z,101419.34
2022-08-24T11:38:27.539Z,101420.84
2022-08-24T11:40:34.032Z,101421.84
2022-08-24T11:43:01.210Z,101418.28
2022-08-24T11:45:15.286Z,101421.84
2022-08-24T11:47:23.538Z,101416.63
2022-08-24T11:50:05.659Z,101410.50
2022-08-24T11:52:15.803Z,101412.44
2022-08-24T11:54:33.791Z,101402.47
2022-08-24T11:56:51.029Z,101401.53
2022-08-24T11:59:13.819Z,101413.94
2022-08-24T12:01:35.990Z,101396.03
2022-08-24T12:03:52.458Z,101391.63
2022-08-24T12:06:21.051Z,101395.38
2022-08-24T12:08:53.337Z,101390.88
2022-08-24T12:11:32.996Z,101394.78
2022-08-24T12:13:52.973Z,101382.97
2022-08-24T12:16:08.273Z,101387.13
2022-08-24T12:18:31.101Z,101393.00
2022-08-24T12:20:38.927Z,101392.78
2022-08-24T12:22:42.651Z,101396.41
2022-08-24T12:24:48.678Z,101394.50
2022-08-24T12:26:53.771Z,101397.66
2022-08-24T12:29:30.779Z,101399.97
2022-08-24T12:31:42.466Z,101399.38
2022-08-24T12:33:50.179Z,101385.00
2022-08-24T12:35:58.263Z,101393.72
2022-08-24T12:38:19.639Z,101386.34
2022-08-24T12:40:49.323Z,101386.50
2022-08-24T12:42:56.245Z,101387.84
2022-08-24T12:45:07.153Z,101396.50
2022-08-24T12:47:09.430Z,101388.09
2022-08-24T12:49:36.518Z,101382.91
2022-08-24T12:51:48.599Z,101385.31
2022-08-24T12:54:02.434Z,101383.22
2022-08-24T12:56:33.109Z,101383.84
2022-08-24T12:58:54.688Z,101386.00
2022-08-24T13:00:58.554Z,101388.00
2022-08-24T13:03:06.215Z,101381.50
2022-08-24T13:05:16.852Z,101374.09
2022-08-24T13:07:21.491Z,101378.13
2022-08-24T13:09:33.331Z,101379.91
2022-08-24T13:11:35.701Z,101374.22
2022-08-24T13:13:47.948Z,101367.44
2022-08-24T13:15:55.593Z,101373.22
2022-08-24T13:18:02.989Z,101374.75
2022-08-24T13:20:24.887Z,101368.50
2022-08-24T13:22:46.950Z,101370.63
2022-08-24T13:24:58.830Z,101366.03
2022-08-24T13:27:12.583Z,101365.97
2022-08-24T13:29:16.491Z,101363.50
2022-08-24T13:31:33.517Z,101362.19
2022-08-24T13:33:50.590Z,101362.63
2022-08-24T13:36:21.635Z,101366.72
2022-08-24T13:38:28.933Z,101361.63
2022-08-24T13:40:32.210Z,101359.22
2022-08-24T13:43:07.913Z,101361.66
2022-08-24T13:45:23.466Z,101358.75
2022-08-24T13:47:31.382Z,101358.03
2022-08-24T13:50:12.449Z,101355.09
2022-08-24T13:53:01.830Z,101357.34
2022-08-24T13:55:41.728Z,101348.03
2022-08-24T13:58:04.218Z,101352.47
2022-08-24T14:00:30.187Z,101363.97
2022-08-24T14:03:19.957Z,101362.16
2022-08-24T14:05:38.571Z,101349.66
2022-08-24T14:08:03.844Z,101344.22
2022-08-24T14:10:27.346Z,101361.44
2022-08-24T14:12:34.750Z,101359.22
2022-08-24T14:14:57.413Z,101356.28
2022-08-24T14:17:36.830Z,101347.38
2022-08-24T14:20:02.843Z,101352.31
2022-08-24T14:22:10.551Z,101360.03
2022-08-24T14:24:30.737Z,101352.91
2022-08-24T14:26:43.897Z,101346.13
2022-08-24T14:28:45.856Z,101352.75
2022-08-24T14:30:54.254Z,101344.78
2022-08-24T14:32:59.340Z,101337.84
2022-08-24T14:35:09.997Z,101335.19
2022-08-24T14:37:30.617Z,101338.63
2022-08-24T14:40:03.339Z,101339.84
2022-08-24T14:42:23.188Z,101332.25
2022-08-24T14:44:53.045Z,101339.34
2022-08-24T14:47:04.578Z,101342.72
2022-08-24T14:49:20.570Z,101350.59
2022-08-24T14:51:41.169Z,101340.38
2022-08-24T14:54:00.237Z,101334.94
2022-08-24T14:56:35.928Z,101340.00
2022-08-24T14:59:12.818Z,101334.97
2022-08-24T15:01:46.847Z,101331.69
2022-08-24T15:04:11.138Z,101331.00
2022-08-24T15:06:39.356Z,101320.69
2022-08-24T15:08:44.297Z,101329.31
2022-08-24T15:10:52.796Z,101329.88
2022-08-24T15:13:03.941Z,101330.53
2022-08-24T15:15:34.505Z,101340.16
2022-08-24T15:17:46.654Z,101327.19
2022-08-24T15:20:08.500Z,101326.53
2022-08-24T15:22:43.872Z,101341.13
2022-08-24T15:25:04.707Z,101335.09
2022-08-24T15:27:15.425Z,101324.69
2022-08-24T15:29:21.505Z,101326.81
2022-08-24T15:31:28.164Z,101327.38
2022-08-24T15:33:31.381Z,101327.94
2022-08-24T15:35:37.598Z,101326.63
2022-08-24T15:37:42.075Z,101315.94
2022-08-24T15:39:59.589Z,101319.28
2022-08-24T15:42:10.243Z,101330.78
2022-08-24T15:44:23.330Z,101322.66
2022-08-24T15:46:32.059Z,101317.56
2022-08-24T15:48:35.032Z,101317.84
2022-08-24T15:50:43.439Z,101320.28
2022-08-24T15:52:51.360Z,101321.41
2022-08-24T15:55:03.500Z,101324.66
2022-08-24T15:57:27.905Z,101329.03
2022-08-24T15:59:53.159Z,101328.38
2022-08-24T16:02:28.664Z,101325.38
2022-08-24T16:05:15.608Z,101329.16
2022-08-24T16:07:26.413Z,101319.03
2022-08-24T16:09:28.064Z,101330.81
2022-08-24T16:11:38.520Z,101324.84
2022-08-24T16:13:42.703Z,101331.91
2022-08-24T16:15:48.886Z,101331.19
2022-08-24T16:17:56.309Z,101340.34
2022-08-24T16:20:01.441Z,101338.25
2022-08-24T16:22:13.032Z,101341.94
2022-08-24T16:24:20.544Z,101341.00
2022-08-24T16:26:30.532Z,101345.78
2022-08-24T16:28:36.422Z,101344.28
2022-08-24T16:30:46.763Z,101339.34
2022-08-24T16:32:54.012Z,101340.00
2022-08-24T16:35:15.648Z,101335.84
2022-08-24T16:37:20.328Z,101338.63
2022-08-24T16:39:22.475Z,101338.47
2022-08-24T16:41:25.013Z,101339.34
2022-08-24T16:43:26.911Z,101333.19
2022-08-24T16:45:32.804Z,101333.03
2022-08-24T16:47:37.713Z,101332.09
2022-08-24T16:49:45.015Z,101340.44
2022-08-24T16:51:46.686Z,101330.06
2022-08-24T16:53:48.356Z,101325.56
2022-08-24T16:55:51.097Z,101327.28
2022-08-24T16:57:52.859Z,101328.38
2022-08-24T16:59:56.527Z,101330.06
2022-08-24T17:02:01.546Z,101334.84
2022-08-24T17:04:03.423Z,101339.50
2022-08-24T17:06:05.699Z,101340.34
2022-08-24T17:08:07.581Z,101343.28
2022-08-24T17:10:13.537Z,101341.97
2022-08-24T17:12:15.450Z,101333.31
2022-08-24T17:14:17.590Z,101337.91
2022-08-24T17:16:21.694Z,101330.97
2022-08-24T17:18:24.919Z,101334.31
2022-08-24T17:20:26.582Z,101334.94
2022-08-24T17:22:28.422Z,101337.50
2022-08-24T17:24:30.238Z,101333.00
2022-08-24T17:26:32.463Z,101337.38
2022-08-24T17:28:39.233Z,101337.19
2022-08-24T17:30:41.990Z,101331.97
2022-08-24T17:32:43.751Z,101340.94
2022-08-24T17:34:45.432Z,101334.69
2022-08-24T17:36:53.385Z,101325.94
2022-08-24T17:38:57.205Z,101340.84
2022-08-24T17:40:59.103Z,101342.25
2022-08-24T17:43:00.838Z,101338.03
2022-08-24T17:45:02.791Z,101332.50
2022-08-24T17:47:05.436Z,101329.31
2022-08-24T17:49:11.809Z,101334.59
2022-08-24T17:51:14.759Z,101343.47
2022-08-24T17:53:16.532Z,101339.19
2022-08-24T17:55:24.041Z,101344.63
2022-08-24T17:57:29.108Z,101340.47
2022-08-24T17:59:35.241Z,101344.16
2022-08-24T18:01:37.091Z,101344.25
2022-08-24T18:03:38.803Z,101341.97
2022-08-24T18:05:40.851Z,101346.44
2022-08-24T18:07:55.877Z,101350.63
2022-08-24T18:10:00.365Z,101356.91
2022-08-24T18:12:03.944Z,101347.13
2022-08-24T18:14:05.735Z,101356.75
2022-08-24T18:16:13.731Z,101355.25
2022-08-24T18:18:15.762Z,101367.03
2022-08-24T18:20:22.984Z,101360.75
2022-08-24T18:22:25.218Z,101366.03
2022-08-24T18:24:32.278Z,101362.47
2022-08-24T18:26:34.375Z,101364.19
2022-08-24T18:28:37.138Z,101370.47
2022-08-24T18:30:41.881Z,101368.88
2022-08-24T18:32:45.939Z,101377.91
2022-08-24T18:34:47.623Z,101371.69
2022-08-24T18:36:49.365Z,101380.78
2022-08-24T18:38:51.417Z,101373.78
2022-08-24T18:40:53.680Z,101369.38
2022-08-24T18:42:57.514Z,101372.69
2022-08-24T18:45:03.119Z,101365.03
2022-08-24T18:47:05.203Z,101367.69
2022-08-24T18:49:07.403Z,101373.03
2022-08-24T18:51:10.912Z,101367.13
2022-08-24T18:53:13.804Z,101373.22
2022-08-24T18:55:17.214Z,101374.19
2022-08-24T18:57:20.445Z,101384.94
2022-08-24T18:59:22.543Z,101383.09
2022-08-24T19:01:25.961Z,101384.44
2022-08-24T19:03:28.174Z,101393.16
2022-08-24T19:05:30.524Z,101384.50
2022-08-24T19:07:36.368Z,101393.44
2022-08-24T19:09:38.325Z,101391.78
2022-08-24T19:11:40.532Z,101402.34
2022-08-24T19:13:42.618Z,101406.88
2022-08-24T19:15:48.933Z,101408.06
2022-08-24T19:17:50.887Z,101412.50
2022-08-24T19:19:58.054Z,101417.19
2022-08-24T19:22:01.101Z,101420.75
2022-08-24T19:24:07.077Z,101417.34
2022-08-24T19:26:09.636Z,101415.78
2022-08-24T19:28:12.599Z,101418.34
2022-08-24T19:30:14.498Z,101428.91
2022-08-24T19:32:22.401Z,101431.91
2022-08-24T19:34:24.808Z,101426.56
2022-08-24T19:36:32.683Z,101432.78
2022-08-24T19:38:35.202Z,101432.91
2022-08-24T19:40:39.067Z,101426.63
2022-08-24T19:42:41.381Z,101430.47
2022-08-24T19:45:02.800Z,101429.63
2022-08-24T19:47:08.753Z,101424.34
2022-08-24T19:49:11.100Z,101430.66
2022-08-24T19:51:14.359Z,101436.97
2022-08-24T19:53:16.432Z,101438.06
2022-08-24T19:55:18.505Z,101435.53
2022-08-24T19:57:39.086Z,101447.16
2022-08-24T19:59:50.717Z,101449.78
2022-08-24T20:01:52.824Z,101448.00
2022-08-24T20:03:55.173Z,101452.47
2022-08-24T20:05:57.405Z,101439.28
2022-08-24T20:08:00.562Z,101442.03
2022-08-24T20:10:12.489Z,101443.84
2022-08-24T20:12:15.222Z,101441.41
2022-08-24T20:14:18.249Z,101443.13
2022-08-24T20:16:21.860Z,101438.09
2022-08-24T20:18:30.858Z,101440.72
2022-08-24T20:20:33.050Z,101445.03
2022-08-24T20:22:35.268Z,101443.38
2022-08-24T20:24:37.369Z,101439.97
2022-08-24T20:26:43.499Z,101453.28
2022-08-24T20:28:53.239Z,101451.75
2022-08-24T20:30:55.318Z,101451.72
2022-08-24T20:32:57.820Z,101451.69
2022-08-24T20:35:00.142Z,101457.00
2022-08-24T20:37:02.180Z,101460.56
2022-08-24T20:39:07.459Z,101452.69
2022-08-24T20:41:09.462Z,101457.25
2022-08-24T20:43:12.661Z,101453.59
2022-08-24T20:45:15.220Z,101463.53
2022-08-24T20:47:17.984Z,101458.44
2022-08-24T20:49:26.707Z,101463.75
2022-08-24T20:51:29.072Z,101469.31
2022-08-24T20:53:31.071Z,101471.06
2022-08-24T20:55:33.161Z,101470.47
2022-08-24T20:57:35.549Z,101468.72
2022-08-24T20:59:37.674Z,101461.94
2022-08-24T21:01:44.208Z,101457.44
2022-08-24T21:03:46.945Z,101457.53
2022-08-24T21:05:52.602Z,101455.78
2022-08-24T21:07:57.366Z,101456.81
2022-08-24T21:09:59.536Z,101456.06
2022-08-24T21:12:01.620Z,101454.34
2022-08-24T21:14:08.275Z,101459.69
2022-08-24T21:16:15.310Z,101460.59
2022-08-24T21:18:17.471Z,101465.94
2022-08-24T21:20:20.310Z,101466.81
2022-08-24T21:22:22.154Z,101471.28
2022-08-24T21:24:25.907Z,101475.88
2022-08-24T21:26:29.838Z,101470.63
2022-08-24T21:28:32.631Z,101466.25
2022-08-24T21:30:34.882Z,101473.34
2022-08-24T21:32:56.027Z,101469.78
2022-08-24T21:34:57.760Z,101466.31
2022-08-24T21:36:59.873Z,101473.38
2022-08-24T21:39:01.794Z,101469.03
2022-08-24T21:41:03.552Z,101470.94
2022-08-24T21:43:14.721Z,101472.69
2022-08-24T21:45:19.838Z,101472.03
2022-08-24T21:47:21.577Z,101474.63
2022-08-24T21:49:23.789Z,101470.22
2022-08-24T21:51:25.521Z,101480.81
2022-08-24T21:53:28.677Z,101469.41
2022-08-24T21:55:30.736Z,101466.78
2022-08-24T21:57:32.438Z,101466.03
2022-08-24T21:59:34.728Z,101458.22
2022-08-24T22:01:38.725Z,101467.94
2022-08-24T22:03:40.545Z,101467.06
2022-08-24T22:05:42.208Z,101472.34
2022-08-24T22:07:44.816Z,101467.97
2022-08-24T22:09:56.179Z,101465.34
2022-08-24T22:11:59.552Z,101468.94
2022-08-24T22:14:02.509Z,101468.13
2022-08-24T22:16:04.809Z,101467.44
2022-08-24T22:18:06.626Z,101456.00
2022-08-24T22:20:22.312Z,101466.63
2022-08-24T22:22:25.727Z,101470.16
2022-08-24T22:24:27.781Z,101471.13
2022-08-24T22:26:30.403Z,101471.81
2022-08-24T22:28:34.553Z,101472.00
2022-08-24T22:30:36.284Z,101480.88
2022-08-24T22:32:38.199Z,101481.69
2022-08-24T22:34:39.997Z,101474.81
2022-08-24T22:36:42.712Z,101474.84
2022-08-24T22:38:44.666Z,101474.00
2022-08-24T22:40:46.909Z,101467.13
2022-08-24T22:42:48.581Z,101465.38
2022-08-24T22:44:50.390Z,101468.00
2022-08-24T22:46:55.647Z,101476.72
2022-08-24T22:48:57.425Z,101476.78
2022-08-24T22:50:59.085Z,101466.28
2022-08-24T22:53:00.836Z,101456.56
2022-08-24T22:55:03.266Z,101460.03
2022-08-24T22:57:05.083Z,101453.94
2022-08-24T22:59:08.849Z,101455.75
2022-08-24T23:01:17.549Z,101462.78
2022-08-24T23:03:19.378Z,101470.72
2022-08-24T23:05:21.150Z,101470.81
2022-08-24T23:07:23.041Z,101461.16
2022-08-24T23:09:25.349Z,101459.34
2022-08-24T23:11:27.704Z,101453.25
2022-08-24T23:13:29.407Z,101451.56
2022-08-24T23:15:31.177Z,101456.88
2022-08-24T23:17:32.963Z,101454.28
2022-08-24T23:19:53.361Z,101448.22
2022-08-24T23:21:55.251Z,101444.69
2022-08-24T23:23:56.950Z,101440.31
2022-08-24T23:25:58.636Z,101439.59
2022-08-24T23:28:01.128Z,101449.28
2022-08-24T23:30:03.735Z,101456.31
2022-08-24T23:32:06.856Z,101457.22
2022-08-24T23:34:08.641Z,101454.63
2022-08-24T23:36:14.019Z,101453.78
2022-08-24T23:38:15.872Z,101452.09
2022-08-24T23:40:19.133Z,101464.38
2022-08-24T23:42:20.974Z,101460.94
2022-08-24T23:44:26.132Z,101454.00
2022-08-24T23:46:27.926Z,101454.91
2022-08-24T23:48:30.337Z,101454.94
2022-08-24T23:50:32.526Z,101463.72
2022-08-24T23:52:37.818Z,101466.47
2022-08-24T23:54:39.503Z,101465.63
2022-08-24T23:56:44.954Z,101468.38
2022-08-24T23:58:50.030Z,101463.09
